createdAt,value
2018-03-03T00:00:08.084Z,99256.89
2018-03-03T00:02:36.372Z,99259.75
2018-03-03T00:05:08.011Z,99257.05
2018-03-03T00:07:36.321Z,99254.95
2018-03-03T00:10:06.434Z,99256.64
2018-03-03T00:12:34.748Z,99264.56
2018-03-03T00:15:06.180Z,99259.73
2018-03-03T00:17:34.533Z,99260.43
2018-03-03T00:20:05.922Z,99255.99
2018-03-03T00:22:43.532Z,99238.47
2018-03-03T00:25:11.825Z,99245.68
2018-03-03T00:27:40.116Z,99245.16
2018-03-03T00:30:08.414Z,99247.34
2018-03-03T00:32:36.957Z,99251.19
2018-03-03T00:35:07.443Z,99257.41
2018-03-03T00:37:35.761Z,99250.08
2018-03-03T00:40:07.478Z,99250.12
2018-03-03T00:42:35.771Z,99254.47
2018-03-03T00:45:07.498Z,99258.78
2018-03-03T00:47:35.803Z,99251.83
2018-03-03T00:50:07.022Z,99252.92
2018-03-03T00:52:35.320Z,99253.22
2018-03-03T00:55:06.191Z,99242.84
2018-03-03T00:57:34.500Z,99246.09
2018-03-03T01:00:08.825Z,99236.95
2018-03-03T01:02:38.051Z,99234.34
2018-03-03T01:05:06.402Z,99230.80
2018-03-03T01:07:34.689Z,99232.73
2018-03-03T01:10:07.178Z,99227.67
2018-03-03T01:12:35.460Z,99225.24
2018-03-03T01:15:07.754Z,99215.00
2018-03-03T01:17:36.047Z,99212.62
2018-03-03T01:20:08.030Z,99211.61
2018-03-03T01:22:36.378Z,99219.84
2018-03-03T01:25:06.190Z,99224.59
2018-03-03T01:27:35.582Z,99221.16
2018-03-03T01:30:06.212Z,99219.57
2018-03-03T01:32:34.488Z,99213.00
2018-03-03T01:35:08.459Z,99210.19
2018-03-03T01:37:36.947Z,99199.14
2018-03-03T01:40:06.585Z,99209.97
2018-03-03T01:42:34.866Z,99210.70
2018-03-03T01:45:06.242Z,99209.58
2018-03-03T01:47:34.541Z,99208.33
2018-03-03T01:50:09.692Z,99199.31
2018-03-03T01:52:37.968Z,99204.39
2018-03-03T01:55:06.274Z,99199.81
2018-03-03T01:57:34.733Z,99196.91
2018-03-03T02:00:06.032Z,99192.52
2018-03-03T02:02:34.325Z,99189.47
2018-03-03T02:05:05.645Z,99193.87
2018-03-03T02:07:33.997Z,99185.70
2018-03-03T02:10:05.769Z,99182.60
2018-03-03T02:12:34.082Z,99174.48
2018-03-03T02:15:05.538Z,99174.04
2018-03-03T02:17:33.836Z,99170.62
2018-03-03T02:20:08.621Z,99171.05
2018-03-03T02:22:36.931Z,99174.79
2018-03-03T02:25:06.520Z,99166.03
2018-03-03T02:27:35.488Z,99169.20
2018-03-03T02:30:06.651Z,99168.42
2018-03-03T02:32:34.941Z,99162.59
2018-03-03T02:35:07.123Z,99156.59
2018-03-03T02:37:35.417Z,99156.62
2018-03-03T02:40:07.415Z,99151.36
2018-03-03T02:42:36.522Z,99142.39
2018-03-03T02:45:07.855Z,99133.45
2018-03-03T02:47:36.463Z,99131.19
2018-03-03T02:50:06.420Z,99128.73
2018-03-03T02:52:34.708Z,99138.53
2018-03-03T02:55:06.734Z,99134.91
2018-03-03T02:57:35.004Z,99130.55
2018-03-03T03:00:06.641Z,99131.64
2018-03-03T03:02:35.228Z,99132.52
2018-03-03T03:05:06.708Z,99133.50
2018-03-03T03:07:34.998Z,99126.27
2018-03-03T03:10:09.001Z,99124.54
2018-03-03T03:12:37.287Z,99123.03
2018-03-03T03:15:06.925Z,99118.03
2018-03-03T03:17:35.617Z,99111.34
2018-03-03T03:20:07.308Z,99104.73
2018-03-03T03:22:35.603Z,99087.84
2018-03-03T03:25:07.776Z,99101.62
2018-03-03T03:27:36.052Z,99101.28
2018-03-03T03:30:07.373Z,99094.34
2018-03-03T03:32:35.654Z,99099.58
2018-03-03T03:35:07.726Z,99091.67
2018-03-03T03:37:36.011Z,99087.39
2018-03-03T03:40:08.085Z,99081.88
2018-03-03T03:42:36.584Z,99078.61
2018-03-03T03:45:06.686Z,99083.56
2018-03-03T03:47:36.208Z,99077.77
2018-03-03T03:50:08.088Z,99078.40
2018-03-03T03:52:36.358Z,99070.42
2018-03-03T03:55:06.325Z,99070.45
2018-03-03T03:57:34.628Z,99066.04
2018-03-03T04:00:09.034Z,99064.94
2018-03-03T04:02:37.324Z,99065.26
2018-03-03T04:05:06.433Z,99057.69
2018-03-03T04:07:34.753Z,99060.48
2018-03-03T04:10:09.756Z,99058.94
2018-03-03T04:12:38.085Z,99055.42
2018-03-03T04:15:06.370Z,99048.06
2018-03-03T04:17:34.678Z,99057.13
2018-03-03T04:20:08.624Z,99049.67
2018-03-03T04:22:36.921Z,99056.02
2018-03-03T04:25:06.746Z,99061.22
2018-03-03T04:27:35.670Z,99058.89
2018-03-03T04:30:07.562Z,99057.08
2018-03-03T04:32:36.224Z,99049.91
2018-03-03T04:35:07.932Z,99059.70
2018-03-03T04:37:36.356Z,99058.53
2018-03-03T04:40:06.387Z,99059.09
2018-03-03T04:42:34.717Z,99062.05
2018-03-03T04:45:09.764Z,99062.64
2018-03-03T04:47:38.077Z,99056.13
2018-03-03T04:50:06.578Z,99048.13
2018-03-03T04:52:35.104Z,99050.48
2018-03-03T04:55:09.057Z,99044.84
2018-03-03T04:57:37.567Z,99036.04
2018-03-03T05:03:12.437Z,99043.30
2018-03-03T05:08:47.709Z,99037.12
2018-03-03T05:11:16.270Z,99035.00
2018-03-03T05:13:44.580Z,99030.34
2018-03-03T05:16:18.482Z,99033.47
2018-03-03T05:21:54.574Z,99044.64
2018-03-03T05:24:28.346Z,99048.82
2018-03-03T05:27:02.299Z,99046.46
2018-03-03T05:29:35.330Z,99039.08
2018-03-03T05:32:09.224Z,99034.41
2018-03-03T05:34:43.001Z,99026.06
2018-03-03T05:37:26.286Z,99034.14
2018-03-03T05:43:05.726Z,99028.55
2018-03-03T05:48:43.412Z,99020.95
2018-03-03T05:51:11.714Z,99021.48
2018-03-03T05:53:42.925Z,99022.35
2018-03-03T05:56:18.878Z,99026.73
2018-03-03T05:58:52.696Z,99026.09
2018-03-03T06:04:38.749Z,99035.20
2018-03-03T06:10:13.355Z,99038.61
2018-03-03T06:12:41.638Z,99040.13
2018-03-03T06:15:09.931Z,99038.86
2018-03-03T06:17:38.292Z,99039.91
2018-03-03T06:20:07.440Z,99046.36
2018-03-03T06:22:35.742Z,99039.09
2018-03-03T06:25:07.193Z,99042.41
2018-03-03T06:27:35.570Z,99048.38
2018-03-03T06:30:05.511Z,99039.83
2018-03-03T06:32:33.842Z,99044.22
2018-03-03T06:35:09.055Z,99049.00
2018-03-03T06:37:37.355Z,99052.08
2018-03-03T06:40:05.642Z,99049.01
2018-03-03T06:42:34.106Z,99054.66
2018-03-03T06:45:05.560Z,99052.64
2018-03-03T06:47:33.866Z,99054.50
2018-03-03T06:50:05.772Z,99048.48
2018-03-03T06:52:34.056Z,99052.88
2018-03-03T06:55:09.114Z,99045.96
2018-03-03T06:57:37.426Z,99045.99
2018-03-03T07:00:05.693Z,99050.04
2018-03-03T07:02:35.046Z,99047.87
2018-03-03T07:05:07.101Z,99046.91
2018-03-03T07:07:35.390Z,99042.13
2018-03-03T07:10:07.177Z,99047.84
2018-03-03T07:12:35.470Z,99048.00
2018-03-03T07:15:07.553Z,99041.59
2018-03-03T07:17:35.878Z,99057.14
2018-03-03T07:20:05.690Z,99056.84
2018-03-03T07:22:34.026Z,99055.80
2018-03-03T07:25:06.269Z,99057.20
2018-03-03T07:27:34.593Z,99057.17
2018-03-03T07:30:06.725Z,99058.28
2018-03-03T07:32:35.031Z,99050.20
2018-03-03T07:35:07.101Z,99048.86
2018-03-03T07:37:35.864Z,99053.30
2018-03-03T07:40:05.736Z,99058.17
2018-03-03T07:42:34.048Z,99058.64
2018-03-03T07:45:09.124Z,99066.41
2018-03-03T07:47:37.431Z,99071.53
2018-03-03T07:50:06.602Z,99077.16
2018-03-03T07:52:34.886Z,99067.45
2018-03-03T07:55:06.497Z,99070.95
2018-03-03T07:57:34.925Z,99069.69
2018-03-03T08:00:06.436Z,99067.48
2018-03-03T08:02:34.722Z,99070.30
2018-03-03T08:05:06.803Z,99075.62
2018-03-03T08:07:35.044Z,99073.33
2018-03-03T08:10:06.881Z,99072.03
2018-03-03T08:12:35.165Z,99063.70
2018-03-03T08:15:07.312Z,99069.49
2018-03-03T08:17:35.578Z,99064.63
2018-03-03T08:20:06.604Z,99062.59
2018-03-03T08:22:34.877Z,99060.92
2018-03-03T08:25:06.310Z,99067.56
2018-03-03T08:27:34.595Z,99068.30
2018-03-03T08:30:06.330Z,99066.77
2018-03-03T08:32:34.992Z,99060.70
2018-03-03T08:35:06.377Z,99066.23
2018-03-03T08:37:34.676Z,99069.38
2018-03-03T08:40:05.656Z,99066.05
2018-03-03T08:42:33.937Z,99072.85
2018-03-03T08:45:05.981Z,99067.19
2018-03-03T08:47:34.281Z,99077.56
2018-03-03T08:50:05.693Z,99070.33
2018-03-03T08:52:33.979Z,99069.84
2018-03-03T08:55:05.498Z,99070.98
2018-03-03T08:57:33.847Z,99071.77
2018-03-03T09:00:06.921Z,99060.08
2018-03-03T09:02:35.205Z,99064.00
2018-03-03T09:05:06.622Z,99068.33
2018-03-03T09:07:34.910Z,99076.34
2018-03-03T09:10:06.542Z,99077.39
2018-03-03T09:12:34.826Z,99078.28
2018-03-03T09:15:06.320Z,99081.40
2018-03-03T09:17:34.862Z,99077.09
2018-03-03T09:20:07.004Z,99081.20
2018-03-03T09:22:35.309Z,99082.88
2018-03-03T09:25:06.553Z,99079.43
2018-03-03T09:27:34.858Z,99077.88
2018-03-03T09:30:05.756Z,99083.02
2018-03-03T09:32:34.070Z,99075.22
2018-03-03T09:35:09.238Z,99079.60
2018-03-03T09:37:37.523Z,99076.20
2018-03-03T09:40:05.962Z,99070.96
2018-03-03T09:42:34.340Z,99073.98
2018-03-03T09:45:06.356Z,99071.44
2018-03-03T09:47:34.639Z,99078.58
2018-03-03T09:50:05.671Z,99075.98
2018-03-03T09:52:34.950Z,99071.70
2018-03-03T09:55:07.064Z,99066.65
2018-03-03T09:57:35.338Z,99071.41
2018-03-03T10:00:06.778Z,99067.20
2018-03-03T10:02:35.048Z,99064.08
2018-03-03T10:05:06.618Z,99053.56
2018-03-03T10:07:34.906Z,99056.16
2018-03-03T10:10:06.730Z,99052.89
2018-03-03T10:12:35.089Z,99067.26
2018-03-03T10:15:07.020Z,99057.20
2018-03-03T10:17:35.511Z,99055.95
2018-03-03T10:20:07.145Z,99055.88
2018-03-03T10:22:35.448Z,99060.95
2018-03-03T10:25:07.544Z,99062.84
2018-03-03T10:27:35.841Z,99059.73
2018-03-03T10:30:08.874Z,99063.85
2018-03-03T10:32:37.412Z,99071.56
2018-03-03T10:35:05.758Z,99073.28
2018-03-03T10:37:34.063Z,99074.24
2018-03-03T10:40:05.586Z,99070.02
2018-03-03T10:42:33.872Z,99073.22
2018-03-03T10:45:05.222Z,99070.22
2018-03-03T10:47:33.526Z,99071.70
2018-03-03T10:50:08.337Z,99070.52
2018-03-03T10:52:36.642Z,99071.50
2018-03-03T10:55:05.965Z,99073.32
2018-03-03T10:57:34.789Z,99072.91
2018-03-03T11:00:06.860Z,99076.86
2018-03-03T11:02:35.146Z,99072.45
2018-03-03T11:05:07.261Z,99069.13
2018-03-03T11:07:35.671Z,99066.77
2018-03-03T11:10:07.790Z,99073.06
2018-03-03T11:12:36.089Z,99069.47
2018-03-03T11:15:08.537Z,99068.33
2018-03-03T11:17:36.825Z,99068.08
2018-03-03T11:20:05.921Z,99069.33
2018-03-03T11:22:34.388Z,99069.43
2018-03-03T11:25:06.169Z,99065.83
2018-03-03T11:27:34.457Z,99061.30
2018-03-03T11:30:06.081Z,99064.06
2018-03-03T11:32:34.353Z,99056.97
2018-03-03T11:35:05.864Z,99057.63
2018-03-03T11:37:34.135Z,99065.66
2018-03-03T11:40:09.591Z,99060.88
2018-03-03T11:42:38.193Z,99067.75
2018-03-03T11:45:06.474Z,99059.97
2018-03-03T11:47:34.797Z,99067.41
2018-03-03T11:50:06.127Z,99063.22
2018-03-03T11:52:34.641Z,99065.14
2018-03-03T11:55:05.833Z,99062.66
2018-03-03T11:57:34.127Z,99071.41
2018-03-03T12:00:06.196Z,99073.88
2018-03-03T12:02:34.510Z,99068.03
2018-03-03T12:05:06.056Z,99064.66
2018-03-03T12:07:34.350Z,99071.41
2018-03-03T12:10:05.678Z,99075.91
2018-03-03T12:12:33.989Z,99078.58
2018-03-03T12:15:09.001Z,99074.89
2018-03-03T12:17:37.351Z,99068.51
2018-03-03T12:20:06.057Z,99080.80
2018-03-03T12:22:34.336Z,99079.45
2018-03-03T12:25:06.803Z,99076.66
2018-03-03T12:27:35.115Z,99078.28
2018-03-03T12:30:06.672Z,99073.64
2018-03-03T12:32:35.129Z,99067.76
2018-03-03T12:35:06.953Z,99076.27
2018-03-03T12:37:36.051Z,99079.12
2018-03-03T12:40:07.261Z,99078.89
2018-03-03T12:42:35.812Z,99076.27
2018-03-03T12:45:07.362Z,99084.40
2018-03-03T12:47:35.656Z,99088.02
2018-03-03T12:50:06.746Z,99085.54
2018-03-03T12:52:35.023Z,99075.23
2018-03-03T12:55:05.948Z,99074.02
2018-03-03T12:57:34.234Z,99074.08
2018-03-03T13:00:09.136Z,99081.28
2018-03-03T13:02:37.418Z,99081.34
2018-03-03T13:05:06.046Z,99081.14
2018-03-03T13:07:34.334Z,99080.84
2018-03-03T13:10:06.545Z,99075.37
2018-03-03T13:12:34.877Z,99074.97
2018-03-03T13:15:06.444Z,99071.41
2018-03-03T13:17:34.733Z,99082.17
2018-03-03T13:20:06.195Z,99076.28
2018-03-03T13:22:34.756Z,99077.80
2018-03-03T13:25:06.864Z,99069.75
2018-03-03T13:27:35.170Z,99071.08
2018-03-03T13:30:06.124Z,99073.39
2018-03-03T13:32:34.514Z,99080.17
2018-03-03T13:35:08.534Z,99086.97
2018-03-03T13:37:36.832Z,99090.23
2018-03-03T13:40:06.505Z,99093.39
2018-03-03T13:42:34.833Z,99077.94
2018-03-03T13:45:06.355Z,99087.74
2018-03-03T13:47:34.666Z,99081.58
2018-03-03T13:50:06.610Z,99076.80
2018-03-03T13:52:34.909Z,99080.48
2018-03-03T13:55:05.989Z,99072.48
2018-03-03T13:57:34.298Z,99072.33
2018-03-03T14:00:05.758Z,99070.55
2018-03-03T14:02:34.818Z,99072.36
2018-03-03T14:05:06.966Z,99074.41
2018-03-03T14:07:35.276Z,99080.33
2018-03-03T14:10:06.883Z,99078.38
2018-03-03T14:12:35.304Z,99078.63
2018-03-03T14:15:07.229Z,99086.05
2018-03-03T14:17:35.518Z,99085.05
2018-03-03T14:20:11.465Z,99092.95
2018-03-03T14:22:39.789Z,99095.95
2018-03-03T14:25:08.080Z,99091.78
2018-03-03T14:27:37.000Z,99103.27
2018-03-03T14:30:06.163Z,99098.35
2018-03-03T14:32:34.460Z,99099.66
2018-03-03T14:35:09.641Z,99098.12
2018-03-03T14:37:38.197Z,99101.20
2018-03-03T14:40:07.283Z,99098.05
2018-03-03T14:42:35.602Z,99096.81
2018-03-03T14:45:07.478Z,99094.66
2018-03-03T14:47:35.765Z,99098.89
2018-03-03T14:50:07.497Z,99098.39
2018-03-03T14:52:35.777Z,99101.14
2018-03-03T14:55:07.530Z,99107.69
2018-03-03T14:57:35.821Z,99104.42
2018-03-03T15:00:07.863Z,99102.50
2018-03-03T15:02:36.164Z,99101.95
2018-03-03T15:05:06.288Z,99113.19
2018-03-03T15:07:34.669Z,99115.13
2018-03-03T15:10:06.195Z,99126.77
2018-03-03T15:12:34.487Z,99116.00
2018-03-03T15:15:06.041Z,99109.82
2018-03-03T15:17:34.510Z,99109.89
2018-03-03T15:20:09.415Z,99112.66
2018-03-03T15:22:37.757Z,99122.61
2018-03-03T15:25:06.258Z,99120.19
2018-03-03T15:27:34.525Z,99126.50
2018-03-03T15:30:09.618Z,99123.13
2018-03-03T15:32:37.922Z,99126.39
2018-03-03T15:35:06.204Z,99129.27
2018-03-03T15:37:35.746Z,99138.00
2018-03-03T15:40:07.913Z,99131.95
2018-03-03T15:42:36.428Z,99136.23
2018-03-03T15:45:06.784Z,99148.36
2018-03-03T15:47:35.206Z,99147.98
2018-03-03T15:50:06.116Z,99142.76
2018-03-03T15:52:34.531Z,99144.25
2018-03-03T15:55:09.721Z,99145.31
2018-03-03T15:57:38.032Z,99148.61
2018-03-03T16:00:06.342Z,99149.37
2018-03-03T16:02:34.650Z,99161.30
2018-03-03T16:05:06.258Z,99156.39
2018-03-03T16:07:34.551Z,99152.84
2018-03-03T16:10:06.806Z,99152.02
2018-03-03T16:12:35.119Z,99148.14
2018-03-03T16:15:06.908Z,99156.92
2018-03-03T16:17:35.362Z,99154.95
2018-03-03T16:20:06.323Z,99154.88
2018-03-03T16:22:34.612Z,99163.01
2018-03-03T16:25:06.205Z,99154.66
2018-03-03T16:27:34.492Z,99166.72
2018-03-03T16:30:06.095Z,99161.91
2018-03-03T16:32:35.400Z,99159.60
2018-03-03T16:35:07.031Z,99163.48
2018-03-03T16:37:35.547Z,99156.13
2018-03-03T16:40:07.479Z,99176.39
2018-03-03T16:42:35.772Z,99178.54
2018-03-03T16:45:07.700Z,99169.63
2018-03-03T16:47:36.022Z,99174.39
2018-03-03T16:50:07.956Z,99179.79
2018-03-03T16:52:36.259Z,99178.10
2018-03-03T16:55:06.898Z,99177.18
2018-03-03T16:57:35.198Z,99176.99
2018-03-03T17:00:07.106Z,99171.12
2018-03-03T17:02:35.413Z,99168.52
2018-03-03T17:05:06.149Z,99188.16
2018-03-03T17:07:34.430Z,99182.58
2018-03-03T17:10:10.172Z,99182.74
2018-03-03T17:12:38.774Z,99187.81
2018-03-03T17:15:07.054Z,99192.95
2018-03-03T17:17:35.326Z,99196.64
2018-03-03T17:20:06.187Z,99198.09
2018-03-03T17:22:34.632Z,99195.61
2018-03-03T17:25:09.821Z,99198.30
2018-03-03T17:27:38.173Z,99200.62
2018-03-03T17:30:06.781Z,99210.17
2018-03-03T17:32:35.558Z,99218.00
2018-03-03T17:35:07.665Z,99226.16
2018-03-03T17:37:35.949Z,99220.85
2018-03-03T17:40:06.165Z,99214.33
2018-03-03T17:42:34.498Z,99224.41
2018-03-03T17:45:06.261Z,99222.27
2018-03-03T17:47:34.498Z,99226.84
2018-03-03T17:50:07.910Z,99228.02
2018-03-03T17:52:36.208Z,99233.73
2018-03-03T17:55:09.325Z,99234.69
2018-03-03T17:57:37.620Z,99236.34
2018-03-03T18:00:06.666Z,99241.56
2018-03-03T18:02:34.969Z,99247.73
2018-03-03T18:05:06.255Z,99246.37
2018-03-03T18:07:34.545Z,99206.73
2018-03-03T18:10:06.029Z,99249.33
2018-03-03T18:12:36.496Z,99254.28
2018-03-03T18:15:07.986Z,99257.87
2018-03-03T18:17:36.266Z,99254.93
2018-03-03T18:20:06.930Z,99256.70
2018-03-03T18:22:35.217Z,99262.94
2018-03-03T18:25:06.290Z,99261.37
2018-03-03T18:27:34.784Z,99258.31
2018-03-03T18:30:06.322Z,99257.78
2018-03-03T18:32:34.637Z,99261.21
2018-03-03T18:35:06.463Z,99253.06
2018-03-03T18:37:34.784Z,99258.11
2018-03-03T18:40:06.495Z,99257.83
2018-03-03T18:42:34.854Z,99265.20
2018-03-03T18:45:06.362Z,99270.24
2018-03-03T18:47:34.658Z,99262.91
2018-03-03T18:50:09.677Z,99262.45
2018-03-03T18:52:37.969Z,99260.66
2018-03-03T18:55:07.058Z,99259.88
2018-03-03T18:57:35.371Z,99262.73
2018-03-03T19:00:07.530Z,99267.01
2018-03-03T19:02:36.018Z,99270.28
2018-03-03T19:05:07.942Z,99257.41
2018-03-03T19:07:36.252Z,99257.72
2018-03-03T19:10:07.998Z,99262.69
2018-03-03T19:12:36.292Z,99251.30
2018-03-03T19:15:06.720Z,99254.27
2018-03-03T19:17:34.998Z,99262.38
2018-03-03T19:20:07.039Z,99262.03
2018-03-03T19:22:35.356Z,99260.16
2018-03-03T19:25:06.355Z,99260.97
2018-03-03T19:27:34.645Z,99266.72
2018-03-03T19:30:06.533Z,99269.58
2018-03-03T19:32:35.123Z,99273.42
2018-03-03T19:35:07.126Z,99269.22
2018-03-03T19:37:35.426Z,99278.27
2018-03-03T19:40:07.401Z,99283.38
2018-03-03T19:42:36.654Z,99274.52
2018-03-03T19:45:07.876Z,99270.84
2018-03-03T19:47:36.272Z,99271.84
2018-03-03T19:50:06.453Z,99262.94
2018-03-03T19:52:34.808Z,99271.38
2018-03-03T19:55:10.034Z,99264.70
2018-03-03T19:57:38.332Z,99263.58
2018-03-03T20:00:06.653Z,99263.89
2018-03-03T20:02:34.929Z,99256.52
2018-03-03T20:05:08.877Z,99269.05
2018-03-03T20:07:37.814Z,99267.96
2018-03-03T20:10:06.779Z,99267.67
2018-03-03T20:12:35.240Z,99270.99
2018-03-03T20:15:07.394Z,99275.09
2018-03-03T20:17:35.892Z,99272.94
2018-03-03T20:20:07.884Z,99273.00
2018-03-03T20:22:36.226Z,99274.38
2018-03-03T20:25:07.572Z,99274.42
2018-03-03T20:27:36.065Z,99274.34
2018-03-03T20:30:07.310Z,99280.48
2018-03-03T20:32:35.854Z,99276.75
2018-03-03T20:35:08.114Z,99278.44
2018-03-03T20:37:36.412Z,99283.84
2018-03-03T20:40:06.484Z,99283.87
2018-03-03T20:42:35.912Z,99284.26
2018-03-03T20:45:07.342Z,99271.28
2018-03-03T20:47:35.626Z,99280.34
2018-03-03T20:50:07.547Z,99279.04
2018-03-03T20:52:35.838Z,99275.47
2018-03-03T20:55:07.750Z,99276.75
2018-03-03T20:57:36.030Z,99276.56
2018-03-03T21:00:07.500Z,99270.25
2018-03-03T21:02:35.804Z,99270.86
2018-03-03T21:05:07.454Z,99278.69
2018-03-03T21:07:35.737Z,99274.73
2018-03-03T21:10:07.262Z,99266.94
2018-03-03T21:12:37.090Z,99271.91
2018-03-03T21:15:07.102Z,99279.36
2018-03-03T21:17:35.373Z,99269.16
2018-03-03T21:20:08.207Z,99268.03
2018-03-03T21:22:36.645Z,99267.14
2018-03-03T21:25:08.415Z,99271.17
2018-03-03T21:27:37.201Z,99266.54
2018-03-03T21:30:07.367Z,99265.70
2018-03-03T21:32:35.807Z,99268.55
2018-03-03T21:35:08.296Z,99263.95
2018-03-03T21:37:37.200Z,99258.00
2018-03-03T21:40:07.842Z,99269.12
2018-03-03T21:42:36.125Z,99267.31
2018-03-03T21:45:07.357Z,99261.97
2018-03-03T21:47:35.761Z,99264.17
2018-03-03T21:50:07.420Z,99266.57
2018-03-03T21:52:35.687Z,99265.38
2018-03-03T21:55:06.665Z,99270.39
2018-03-03T21:57:34.938Z,99277.63
2018-03-03T22:00:06.685Z,99274.73
2018-03-03T22:02:35.019Z,99271.41
2018-03-03T22:05:06.858Z,99276.87
2018-03-03T22:07:35.437Z,99278.32
2018-03-03T22:10:07.254Z,99273.56
2018-03-03T22:12:35.554Z,99276.72
2018-03-03T22:15:06.773Z,99276.94
2018-03-03T22:17:35.080Z,99280.61
2018-03-03T22:20:09.110Z,99286.97
2018-03-03T22:22:37.413Z,99275.64
2018-03-03T22:25:07.077Z,99288.31
2018-03-03T22:27:35.361Z,99284.61
2018-03-03T22:30:06.585Z,99291.48
2018-03-03T22:32:35.444Z,99285.95
2018-03-03T22:35:07.554Z,99276.64
2018-03-03T22:37:36.203Z,99281.72
2018-03-03T22:40:07.417Z,99280.38
2018-03-03T22:42:35.726Z,99284.11
2018-03-03T22:45:07.057Z,99284.39
2018-03-03T22:47:35.347Z,99283.77
2018-03-03T22:50:06.702Z,99284.19
2018-03-03T22:52:35.118Z,99287.39
2018-03-03T22:55:07.257Z,99291.17
2018-03-03T22:57:35.562Z,99295.94
2018-03-03T23:00:07.870Z,99297.17
2018-03-03T23:02:36.157Z,99295.69
2018-03-03T23:05:06.025Z,99292.37
2018-03-03T23:07:34.357Z,99293.50
2018-03-03T23:10:08.558Z,99295.94
2018-03-03T23:12:36.829Z,99292.83
2018-03-03T23:15:06.403Z,99293.86
2018-03-03T23:17:34.692Z,99294.49
2018-03-03T23:20:06.558Z,99294.03
2018-03-03T23:22:34.859Z,99279.11
2018-03-03T23:25:06.994Z,99293.33
2018-03-03T23:27:35.297Z,99289.63
2018-03-03T23:30:06.266Z,99294.03
2018-03-03T23:32:34.548Z,99299.11
2018-03-03T23:35:06.066Z,99302.57
2018-03-03T23:37:34.376Z,99298.66
2018-03-03T23:40:06.068Z,99289.59
2018-03-03T23:42:34.379Z,99303.34
2018-03-03T23:45:09.612Z,99303.17
2018-03-03T23:47:49.764Z,99302.81
2018-03-03T23:50:18.053Z,99298.77
2018-03-03T23:52:46.617Z,99307.80
2018-03-03T23:55:14.911Z,99305.36
2018-03-03T23:57:43.368Z,99310.09
